createdAt,value
2018-01-30T00:00:59.076Z,93.7
2018-01-30T00:01:59.739Z,93.1
2018-01-30T00:03:00.403Z,93.2
2018-01-30T00:04:01.069Z,92.8
2018-01-30T00:05:01.735Z,92.2
2018-01-30T00:06:02.397Z,92.3
2018-01-30T00:07:03.060Z,92.2
2018-01-30T00:08:03.723Z,90.7
2018-01-30T00:09:04.388Z,90.6
2018-01-30T00:10:05.091Z,89.8
2018-01-30T00:11:05.754Z,89.7
2018-01-30T00:12:06.416Z,89.4
2018-01-30T00:13:07.078Z,88.2
2018-01-30T00:14:07.742Z,87.6
2018-01-30T00:15:08.404Z,87.4
2018-01-30T00:16:09.070Z,87.3
2018-01-30T00:17:09.769Z,87.8
2018-01-30T00:18:10.436Z,87.2
2018-01-30T00:19:11.138Z,87.1
2018-01-30T00:20:11.804Z,86.6
2018-01-30T00:21:12.507Z,86.8
2018-01-30T00:22:13.171Z,87.2
2018-01-30T00:23:13.833Z,87.2
2018-01-30T00:24:14.496Z,87.2
2018-01-30T00:25:15.160Z,87.2
2018-01-30T00:26:15.824Z,86.8
2018-01-30T00:27:16.487Z,86.6
2018-01-30T00:28:17.150Z,87.1
2018-01-30T00:29:17.812Z,86.8
2018-01-30T00:30:18.529Z,86.9
2018-01-30T00:31:19.191Z,86.8
2018-01-30T00:32:19.852Z,87.3
2018-01-30T00:33:20.516Z,87.4
2018-01-30T00:34:21.208Z,87.3
2018-01-30T00:35:21.841Z,86.9
2018-01-30T00:36:22.505Z,86.9
2018-01-30T00:37:23.169Z,86.9
2018-01-30T00:38:23.832Z,86.5
2018-01-30T00:39:24.495Z,86.5
2018-01-30T00:40:25.207Z,86.2
2018-01-30T00:41:25.871Z,86.1
2018-01-30T00:42:26.537Z,86.1
2018-01-30T00:43:27.231Z,86.3
2018-01-30T00:44:27.900Z,86.8
2018-01-30T00:45:28.563Z,86.9
2018-01-30T00:46:29.226Z,87.2
2018-01-30T00:47:29.889Z,86.5
2018-01-30T00:48:30.554Z,85.8
2018-01-30T00:49:31.217Z,85.3
2018-01-30T00:50:31.880Z,85.3
2018-01-30T00:51:32.542Z,85.2
2018-01-30T00:52:33.204Z,85.3
2018-01-30T00:53:33.869Z,85.6
2018-01-30T00:54:34.534Z,85.9
2018-01-30T00:55:35.198Z,85.6
2018-01-30T00:56:35.861Z,85.4
2018-01-30T00:57:36.523Z,86.3
2018-01-30T00:58:37.186Z,86.3
2018-01-30T00:59:37.889Z,86.1
2018-01-30T01:00:38.552Z,86.5
2018-01-30T01:01:39.216Z,85.3
2018-01-30T01:02:39.878Z,85.8
2018-01-30T01:03:40.541Z,85.8
2018-01-30T01:04:41.203Z,86.2
2018-01-30T01:05:41.866Z,86.2
2018-01-30T01:06:42.528Z,85.0
2018-01-30T01:07:43.194Z,85.0
2018-01-30T01:08:43.858Z,85.4
2018-01-30T01:09:44.521Z,86.4
2018-01-30T01:10:45.184Z,85.4
2018-01-30T01:11:45.847Z,85.0
2018-01-30T01:12:46.510Z,84.8
2018-01-30T01:13:47.215Z,85.1
2018-01-30T01:14:47.878Z,85.1
2018-01-30T01:15:48.541Z,86.0
2018-01-30T01:16:49.202Z,85.6
2018-01-30T01:17:49.865Z,85.1
2018-01-30T01:18:50.527Z,85.2
2018-01-30T01:19:51.190Z,84.9
2018-01-30T01:20:51.855Z,84.7
2018-01-30T01:21:52.520Z,85.0
2018-01-30T01:22:53.182Z,84.8
2018-01-30T01:23:53.844Z,84.8
2018-01-30T01:24:54.506Z,84.9
2018-01-30T01:25:55.171Z,85.3
2018-01-30T01:26:55.835Z,84.7
2018-01-30T01:27:56.498Z,84.9
2018-01-30T01:28:57.160Z,84.9
2018-01-30T01:29:57.822Z,85.1
2018-01-30T01:30:58.489Z,84.5
2018-01-30T01:31:59.146Z,84.4
2018-01-30T01:32:59.812Z,85.0
2018-01-30T01:34:00.476Z,84.8
2018-01-30T01:35:01.140Z,84.6
2018-01-30T01:36:01.842Z,84.0
2018-01-30T01:37:02.544Z,84.0
2018-01-30T01:38:03.206Z,84.5
2018-01-30T01:39:03.869Z,85.0
2018-01-30T01:40:04.532Z,84.8
2018-01-30T01:41:05.197Z,84.8
2018-01-30T01:42:05.907Z,84.9
2018-01-30T01:43:06.526Z,85.3
2018-01-30T01:44:07.184Z,86.0
2018-01-30T01:45:07.845Z,85.9
2018-01-30T01:46:08.508Z,86.3
2018-01-30T01:47:09.173Z,86.8
2018-01-30T01:48:09.838Z,86.6
2018-01-30T01:49:10.501Z,86.5
2018-01-30T01:50:11.163Z,86.8
2018-01-30T01:51:11.860Z,87.4
2018-01-30T01:52:12.527Z,86.7
2018-01-30T01:53:13.191Z,85.8
2018-01-30T01:54:13.854Z,86.0
2018-01-30T01:55:14.518Z,85.6
2018-01-30T01:56:15.179Z,85.0
2018-01-30T01:57:15.842Z,85.0
2018-01-30T01:58:16.504Z,85.3
2018-01-30T01:59:17.165Z,84.7
2018-01-30T02:00:17.829Z,85.0
2018-01-30T02:01:18.493Z,85.0
2018-01-30T02:02:19.157Z,84.7
2018-01-30T02:03:19.821Z,84.3
2018-01-30T02:04:20.483Z,84.3
2018-01-30T02:05:21.152Z,84.3
2018-01-30T02:06:21.810Z,83.9
2018-01-30T02:07:22.473Z,84.4
2018-01-30T02:08:23.135Z,84.4
2018-01-30T02:09:23.798Z,84.3
2018-01-30T02:10:24.461Z,84.4
2018-01-30T02:11:25.123Z,84.8
2018-01-30T02:12:25.789Z,84.8
2018-01-30T02:13:26.453Z,85.1
2018-01-30T02:14:27.115Z,85.5
2018-01-30T02:15:27.777Z,85.4
2018-01-30T02:16:28.440Z,85.3
2018-01-30T02:17:29.102Z,85.7
2018-01-30T02:18:29.765Z,86.2
2018-01-30T02:19:30.429Z,86.4
2018-01-30T02:20:31.093Z,85.9
2018-01-30T02:21:31.755Z,86.4
2018-01-30T02:22:32.416Z,86.7
2018-01-30T02:23:33.077Z,86.3
2018-01-30T02:24:33.740Z,86.4
2018-01-30T02:25:34.403Z,86.8
2018-01-30T02:26:35.068Z,86.6
2018-01-30T02:27:35.731Z,86.5
2018-01-30T02:28:36.395Z,87.4
2018-01-30T02:29:37.056Z,86.9
2018-01-30T02:30:37.719Z,87.4
2018-01-30T02:31:38.382Z,87.4
2018-01-30T02:32:39.046Z,87.6
2018-01-30T02:33:39.709Z,87.5
2018-01-30T02:34:40.377Z,87.1
2018-01-30T02:35:41.072Z,87.0
2018-01-30T02:36:41.735Z,86.5
2018-01-30T02:37:42.399Z,86.6
2018-01-30T02:38:43.060Z,86.7
2018-01-30T02:39:43.725Z,87.1
2018-01-30T02:40:44.389Z,87.5
2018-01-30T02:41:45.053Z,86.9
2018-01-30T02:42:45.755Z,86.7
2018-01-30T02:43:46.418Z,86.8
2018-01-30T02:44:47.081Z,87.1
2018-01-30T02:45:47.745Z,87.2
2018-01-30T02:46:48.406Z,87.1
2018-01-30T02:47:49.069Z,87.6
2018-01-30T02:48:49.733Z,87.5
2018-01-30T02:49:50.393Z,87.6
2018-01-30T02:50:51.057Z,87.4
2018-01-30T02:51:51.720Z,87.8
2018-01-30T02:52:52.388Z,88.0
2018-01-30T02:53:53.050Z,88.2
2018-01-30T02:54:53.712Z,88.4
2018-01-30T02:55:54.381Z,88.1
2018-01-30T02:56:55.036Z,88.5
2018-01-30T02:57:55.699Z,88.5
2018-01-30T02:58:56.363Z,88.4
2018-01-30T02:59:57.026Z,88.4
2018-01-30T03:00:57.687Z,88.2
2018-01-30T03:01:58.350Z,87.8
2018-01-30T03:02:59.013Z,87.1
2018-01-30T03:03:59.675Z,87.0
2018-01-30T03:05:00.337Z,86.9
2018-01-30T03:06:01.002Z,86.7
2018-01-30T03:07:01.706Z,87.3
2018-01-30T03:08:02.369Z,87.5
2018-01-30T03:09:03.033Z,87.2
2018-01-30T03:10:03.695Z,87.3
2018-01-30T03:11:04.356Z,86.9
2018-01-30T03:12:05.045Z,88.0
2018-01-30T03:13:05.683Z,87.4
2018-01-30T03:14:06.345Z,87.8
2018-01-30T03:15:07.008Z,87.8
2018-01-30T03:16:07.710Z,87.7
2018-01-30T03:17:08.335Z,88.2
2018-01-30T03:18:08.999Z,88.2
2018-01-30T03:19:09.662Z,88.5
2018-01-30T03:20:10.325Z,88.2
2018-01-30T03:21:10.988Z,88.4
2018-01-30T03:22:11.650Z,88.3
2018-01-30T03:23:12.313Z,88.6
2018-01-30T03:24:12.975Z,88.3
2018-01-30T03:25:13.638Z,89.1
2018-01-30T03:26:14.300Z,88.9
2018-01-30T03:27:14.961Z,88.6
2018-01-30T03:28:15.624Z,88.9
2018-01-30T03:29:16.284Z,88.7
2018-01-30T03:30:16.967Z,89.0
2018-01-30T03:31:17.607Z,89.0
2018-01-30T03:32:18.273Z,88.6
2018-01-30T03:33:18.935Z,89.0
2018-01-30T03:34:19.596Z,89.0
2018-01-30T03:35:20.258Z,88.9
2018-01-30T03:36:20.920Z,89.6
2018-01-30T03:37:21.584Z,89.1
2018-01-30T03:38:22.247Z,89.0
2018-01-30T03:39:22.910Z,89.3
2018-01-30T03:40:23.572Z,89.4
2018-01-30T03:41:24.233Z,89.4
2018-01-30T03:42:24.895Z,89.3
2018-01-30T03:43:25.595Z,89.8
2018-01-30T03:44:26.257Z,89.0
2018-01-30T03:45:26.919Z,89.4
2018-01-30T03:46:27.583Z,89.1
2018-01-30T03:47:28.246Z,89.3
2018-01-30T03:48:28.909Z,89.4
2018-01-30T03:49:29.570Z,89.8
2018-01-30T03:50:30.232Z,89.3
2018-01-30T03:51:30.895Z,89.2
2018-01-30T03:52:31.805Z,89.1
2018-01-30T03:53:32.469Z,88.8
2018-01-30T03:54:33.170Z,88.9
2018-01-30T03:55:33.834Z,88.4
2018-01-30T03:56:34.497Z,88.3
2018-01-30T03:57:35.158Z,88.3
2018-01-30T03:58:35.820Z,88.2
2018-01-30T03:59:36.482Z,88.2
2018-01-30T04:00:37.142Z,88.0
2018-01-30T04:01:37.805Z,87.6
2018-01-30T04:02:38.469Z,88.0
2018-01-30T04:03:39.171Z,88.4
2018-01-30T04:04:39.835Z,87.8
2018-01-30T04:05:40.497Z,87.9
2018-01-30T04:06:41.158Z,87.4
2018-01-30T04:07:41.821Z,87.4
2018-01-30T04:08:42.522Z,87.1
2018-01-30T04:09:43.185Z,87.3
2018-01-30T04:10:43.848Z,87.2
2018-01-30T04:11:44.512Z,87.4
2018-01-30T04:12:45.225Z,87.1
2018-01-30T04:13:45.889Z,87.2
2018-01-30T04:14:46.553Z,86.8
2018-01-30T04:15:47.216Z,87.1
2018-01-30T04:16:47.878Z,86.9
2018-01-30T04:17:48.540Z,86.8
2018-01-30T04:18:49.203Z,86.4
2018-01-30T04:19:49.867Z,86.4
2018-01-30T04:20:50.529Z,86.7
2018-01-30T04:21:51.192Z,86.5
2018-01-30T04:22:51.853Z,87.0
2018-01-30T04:23:52.515Z,87.1
2018-01-30T04:24:53.178Z,86.8
2018-01-30T04:25:53.842Z,87.1
2018-01-30T04:26:54.507Z,87.1
2018-01-30T04:27:55.169Z,88.0
2018-01-30T04:28:55.832Z,87.1
2018-01-30T04:29:56.492Z,87.3
2018-01-30T04:30:57.155Z,86.9
2018-01-30T04:31:57.819Z,86.1
2018-01-30T04:32:58.481Z,86.2
2018-01-30T04:33:59.143Z,86.2
2018-01-30T04:34:59.805Z,85.9
2018-01-30T04:36:00.467Z,85.5
2018-01-30T04:37:01.129Z,85.5
2018-01-30T04:38:01.794Z,85.9
2018-01-30T04:39:02.458Z,86.1
2018-01-30T04:40:03.121Z,85.7
2018-01-30T04:41:03.784Z,85.8
2018-01-30T04:42:04.445Z,85.7
2018-01-30T04:43:05.109Z,85.7
2018-01-30T04:44:05.814Z,85.6
2018-01-30T04:45:06.473Z,85.5
2018-01-30T04:46:07.136Z,85.6
2018-01-30T04:47:07.798Z,85.5
2018-01-30T04:48:08.461Z,85.7
2018-01-30T04:49:09.121Z,85.7
2018-01-30T04:50:09.782Z,85.4
2018-01-30T04:51:10.445Z,85.9
2018-01-30T04:52:11.108Z,86.1
2018-01-30T04:53:11.811Z,86.1
2018-01-30T04:54:12.474Z,86.4
2018-01-30T04:55:13.137Z,86.2
2018-01-30T04:56:13.801Z,86.4
2018-01-30T04:57:14.463Z,86.7
2018-01-30T04:58:15.127Z,86.1
2018-01-30T04:59:15.790Z,86.3
2018-01-30T05:00:16.452Z,86.3
2018-01-30T05:01:17.124Z,86.1
2018-01-30T05:02:17.816Z,86.1
2018-01-30T05:03:18.477Z,86.2
2018-01-30T05:04:19.140Z,86.6
2018-01-30T05:05:19.803Z,86.7
2018-01-30T05:06:20.468Z,86.7
2018-01-30T05:07:21.131Z,86.7
2018-01-30T05:08:21.791Z,86.6
2018-01-30T05:09:22.453Z,86.7
2018-01-30T05:10:23.116Z,86.5
2018-01-30T05:11:23.779Z,86.0
2018-01-30T05:12:24.442Z,86.1
2018-01-30T05:13:25.105Z,86.3
2018-01-30T05:14:25.766Z,86.6
2018-01-30T05:15:26.428Z,86.2
2018-01-30T05:16:27.089Z,86.6
2018-01-30T05:17:27.752Z,86.3
2018-01-30T05:18:28.453Z,86.1
2018-01-30T05:19:29.117Z,87.0
2018-01-30T05:20:29.780Z,86.8
2018-01-30T05:21:30.460Z,86.0
2018-01-30T05:22:31.144Z,85.8
2018-01-30T05:23:31.806Z,85.7
2018-01-30T05:24:32.468Z,85.8
2018-01-30T05:25:33.130Z,85.8
2018-01-30T05:26:33.793Z,85.6
2018-01-30T05:27:34.483Z,85.4
2018-01-30T05:28:35.155Z,85.7
2018-01-30T05:29:35.818Z,85.7
2018-01-30T05:30:36.480Z,85.9
2018-01-30T05:31:37.142Z,85.7
2018-01-30T05:32:37.804Z,85.4
2018-01-30T05:33:38.469Z,85.9
2018-01-30T05:34:39.133Z,85.4
2018-01-30T05:35:39.796Z,85.0
2018-01-30T05:36:40.456Z,85.1
2018-01-30T05:37:41.124Z,85.0
2018-01-30T05:38:41.796Z,84.6
2018-01-30T05:39:42.482Z,84.7
2018-01-30T05:40:43.149Z,84.7
2018-01-30T05:41:43.809Z,84.4
2018-01-30T05:42:44.471Z,84.2
2018-01-30T05:43:45.134Z,84.1
2018-01-30T05:44:45.833Z,84.0
2018-01-30T05:45:46.499Z,84.4
2018-01-30T05:46:47.195Z,84.3
2018-01-30T05:47:47.897Z,83.9
2018-01-30T05:48:48.557Z,83.6
2018-01-30T05:49:49.220Z,83.7
2018-01-30T05:50:49.883Z,84.1
2018-01-30T05:51:50.547Z,85.1
2018-01-30T05:52:51.235Z,84.7
2018-01-30T05:53:51.962Z,84.7
2018-01-30T05:54:52.624Z,85.0
2018-01-30T05:55:53.288Z,84.7
2018-01-30T05:56:53.949Z,84.9
2018-01-30T05:57:54.611Z,84.9
2018-01-30T05:58:55.312Z,84.6
2018-01-30T05:59:55.977Z,85.0
2018-01-30T06:00:56.637Z,85.3
2018-01-30T06:01:57.299Z,85.1
2018-01-30T06:02:57.962Z,85.4
2018-01-30T06:03:58.680Z,85.6
2018-01-30T06:04:59.336Z,85.4
2018-01-30T06:05:59.999Z,84.9
2018-01-30T06:07:00.662Z,85.1
2018-01-30T06:08:01.329Z,85.5
2018-01-30T06:09:02.008Z,85.6
2018-01-30T06:10:02.719Z,85.5
2018-01-30T06:11:03.388Z,85.8
2018-01-30T06:12:04.050Z,85.5
2018-01-30T06:13:04.710Z,85.5
2018-01-30T06:14:05.372Z,85.6
2018-01-30T06:15:06.077Z,85.6
2018-01-30T06:16:06.744Z,85.4
2018-01-30T06:17:07.404Z,85.2
2018-01-30T06:18:08.064Z,85.7
2018-01-30T06:19:08.730Z,85.5
2018-01-30T06:20:09.389Z,85.7
2018-01-30T06:21:10.052Z,85.7
2018-01-30T06:22:10.715Z,86.2
2018-01-30T06:23:11.375Z,86.3
2018-01-30T06:24:12.036Z,85.7
2018-01-30T06:25:12.698Z,85.5
2018-01-30T06:26:13.359Z,85.7
2018-01-30T06:27:14.022Z,85.5
2018-01-30T06:28:14.731Z,85.6
2018-01-30T06:30:30.911Z,86.2
2018-01-30T06:31:31.574Z,86.0
2018-01-30T06:32:32.235Z,85.9
2018-01-30T06:33:32.897Z,85.3
2018-01-30T06:34:33.585Z,85.2
2018-01-30T06:35:34.260Z,85.9
2018-01-30T06:36:34.922Z,86.2
2018-01-30T06:37:35.586Z,86.1
2018-01-30T06:38:36.269Z,85.9
2018-01-30T06:39:36.951Z,85.9
2018-01-30T06:40:37.653Z,86.2
2018-01-30T06:41:38.316Z,86.0
2018-01-30T06:42:39.016Z,86.0
2018-01-30T06:43:39.680Z,86.2
2018-01-30T06:44:40.379Z,86.5
2018-01-30T06:45:41.046Z,86.1
2018-01-30T06:46:41.762Z,86.1
2018-01-30T06:47:42.370Z,86.1
2018-01-30T06:48:43.033Z,85.8
2018-01-30T06:49:43.697Z,86.3
2018-01-30T06:50:44.413Z,86.2
2018-01-30T06:51:45.078Z,86.1
2018-01-30T06:52:45.742Z,86.5
2018-01-30T06:53:46.445Z,86.2
2018-01-30T06:54:47.108Z,85.8
2018-01-30T06:55:47.771Z,85.3
2018-01-30T06:56:48.436Z,85.5
2018-01-30T06:57:49.101Z,85.5
2018-01-30T06:58:49.764Z,85.7
2018-01-30T06:59:50.429Z,85.8
2018-01-30T07:00:51.143Z,86.0
2018-01-30T07:01:51.819Z,86.1
2018-01-30T07:02:52.510Z,86.3
2018-01-30T07:03:53.176Z,86.4
2018-01-30T07:04:53.839Z,86.3
2018-01-30T07:05:54.508Z,86.3
2018-01-30T07:06:55.173Z,86.0
2018-01-30T07:07:55.881Z,86.3
2018-01-30T07:08:56.540Z,86.8
2018-01-30T07:09:57.204Z,86.4
2018-01-30T07:10:57.921Z,86.6
2018-01-30T07:11:58.586Z,86.5
2018-01-30T07:12:59.251Z,86.5
2018-01-30T07:13:59.916Z,86.9
2018-01-30T07:15:00.581Z,86.6
2018-01-30T07:16:01.248Z,86.7
2018-01-30T07:17:01.913Z,87.0
2018-01-30T07:18:02.578Z,87.4
2018-01-30T07:19:03.244Z,87.2
2018-01-30T07:20:03.909Z,87.4
2018-01-30T07:21:04.661Z,87.4
2018-01-30T07:22:05.328Z,87.5
2018-01-30T07:23:05.991Z,87.0
2018-01-30T07:24:06.657Z,86.9
2018-01-30T07:25:07.321Z,87.1
2018-01-30T07:26:07.987Z,86.8
2018-01-30T07:27:08.652Z,86.9
2018-01-30T07:28:09.320Z,86.6
2018-01-30T07:29:09.988Z,86.6
2018-01-30T07:30:10.651Z,86.5
2018-01-30T07:31:11.366Z,86.6
2018-01-30T07:32:12.037Z,86.5
2018-01-30T07:33:12.751Z,86.8
2018-01-30T07:34:13.377Z,86.4
2018-01-30T07:35:14.066Z,86.7
2018-01-30T07:36:14.732Z,86.6
2018-01-30T07:37:15.398Z,86.9
2018-01-30T07:38:16.063Z,86.4
2018-01-30T07:39:16.754Z,86.3
2018-01-30T07:40:17.439Z,86.9
2018-01-30T07:41:18.102Z,86.4
2018-01-30T07:42:18.770Z,86.5
2018-01-30T07:43:19.436Z,86.8
2018-01-30T07:44:20.143Z,86.1
2018-01-30T07:45:20.810Z,85.7
2018-01-30T07:46:21.514Z,85.5
2018-01-30T07:47:22.181Z,85.8
2018-01-30T07:48:22.847Z,85.6
2018-01-30T07:49:23.512Z,86.1
2018-01-30T07:50:24.178Z,85.8
2018-01-30T07:51:24.846Z,85.6
2018-01-30T07:52:25.512Z,85.4
2018-01-30T07:53:26.179Z,85.0
2018-01-30T07:54:26.848Z,85.0
2018-01-30T07:55:27.511Z,85.0
2018-01-30T07:56:28.181Z,85.0
2018-01-30T07:57:28.885Z,84.9
2018-01-30T07:58:29.551Z,84.9
2018-01-30T07:59:30.219Z,84.7
2018-01-30T08:00:30.885Z,85.3
2018-01-30T08:01:31.580Z,85.0
2018-01-30T08:02:32.255Z,85.0
2018-01-30T08:03:32.923Z,85.3
2018-01-30T08:04:33.589Z,85.1
2018-01-30T08:05:34.256Z,85.8
2018-01-30T08:06:35.010Z,85.8
2018-01-30T08:07:35.679Z,85.6
2018-01-30T08:08:36.385Z,85.5
2018-01-30T08:09:37.051Z,85.7
2018-01-30T08:10:37.718Z,85.8
2018-01-30T08:11:38.437Z,85.4
2018-01-30T08:12:39.050Z,85.1
2018-01-30T08:13:39.723Z,84.8
2018-01-30T08:14:40.384Z,84.9
2018-01-30T08:15:41.054Z,84.7
2018-01-30T08:16:41.718Z,85.2
2018-01-30T08:17:42.427Z,85.4
2018-01-30T08:18:43.053Z,85.1
2018-01-30T08:19:43.720Z,85.1
2018-01-30T08:20:44.386Z,85.3
2018-01-30T08:21:45.053Z,84.7
2018-01-30T08:22:45.722Z,84.6
2018-01-30T08:23:46.385Z,85.3
2018-01-30T08:24:47.053Z,84.9
2018-01-30T08:25:47.719Z,84.9
2018-01-30T08:26:48.387Z,84.7
2018-01-30T08:27:49.053Z,84.7
2018-01-30T08:28:49.719Z,84.7
2018-01-30T08:29:50.387Z,85.1
2018-01-30T08:30:51.055Z,84.8
2018-01-30T08:31:51.721Z,84.4
2018-01-30T08:32:52.426Z,85.0
2018-01-30T08:33:53.092Z,84.2
2018-01-30T08:34:53.759Z,85.3
2018-01-30T08:35:54.426Z,85.1
2018-01-30T08:36:55.095Z,84.9
2018-01-30T08:37:55.763Z,84.8
2018-01-30T08:38:56.431Z,84.2
2018-01-30T08:39:57.107Z,83.9
2018-01-30T08:40:57.765Z,83.7
2018-01-30T08:41:58.533Z,83.8
2018-01-30T08:42:59.200Z,83.8
2018-01-30T08:43:59.867Z,84.0
2018-01-30T08:45:00.535Z,84.2
2018-01-30T08:46:01.201Z,84.2
2018-01-30T08:47:01.868Z,83.9
2018-01-30T08:48:02.577Z,83.8
2018-01-30T08:49:03.248Z,84.0
2018-01-30T08:50:03.913Z,83.7
2018-01-30T08:51:04.580Z,83.9
2018-01-30T08:52:05.248Z,83.8
2018-01-30T08:53:05.916Z,83.0
2018-01-30T08:54:06.614Z,83.5
2018-01-30T08:55:07.291Z,83.3
2018-01-30T08:56:07.960Z,84.0
2018-01-30T08:57:08.626Z,83.3
2018-01-30T08:58:09.294Z,83.2
2018-01-30T08:59:09.960Z,83.4
2018-01-30T09:00:10.628Z,83.1
2018-01-30T09:01:11.297Z,82.4
2018-01-30T09:02:11.969Z,82.7
2018-01-30T09:03:12.632Z,82.0
2018-01-30T09:04:13.338Z,82.3
2018-01-30T09:05:14.008Z,83.1
2018-01-30T09:06:14.673Z,81.9
2018-01-30T09:07:15.341Z,81.4
2018-01-30T09:08:16.026Z,81.1
2018-01-30T09:09:16.715Z,81.5
2018-01-30T09:10:17.381Z,80.7
2018-01-30T09:11:18.050Z,80.8
2018-01-30T09:12:18.773Z,80.5
2018-01-30T09:13:19.385Z,80.7
2018-01-30T09:14:20.092Z,80.7
2018-01-30T09:15:20.757Z,80.1
2018-01-30T09:16:21.423Z,80.1
2018-01-30T09:17:22.092Z,80.2
2018-01-30T09:18:22.759Z,79.8
2018-01-30T09:19:23.427Z,79.9
2018-01-30T09:20:24.094Z,79.9
2018-01-30T09:21:24.760Z,79.8
2018-01-30T09:22:25.679Z,79.8
2018-01-30T09:23:26.349Z,80.0
2018-01-30T09:24:27.018Z,79.4
2018-01-30T09:25:27.681Z,79.4
2018-01-30T09:26:28.348Z,79.7
2018-01-30T09:27:29.015Z,80.0
2018-01-30T09:28:29.683Z,80.1
2018-01-30T09:29:30.351Z,80.2
2018-01-30T09:30:31.036Z,80.2
2018-01-30T09:31:31.724Z,80.3
2018-01-30T09:32:32.441Z,80.2
2018-01-30T09:33:33.109Z,80.3
2018-01-30T09:34:33.776Z,80.7
2018-01-30T09:35:34.444Z,80.5
2018-01-30T09:36:35.110Z,79.8
2018-01-30T09:37:35.826Z,79.4
2018-01-30T09:38:36.495Z,80.0
2018-01-30T09:39:37.162Z,80.3
2018-01-30T09:40:37.829Z,79.8
2018-01-30T09:41:38.504Z,78.9
2018-01-30T09:42:39.206Z,78.7
2018-01-30T09:43:39.914Z,78.7
2018-01-30T09:44:40.583Z,78.8
2018-01-30T09:45:41.248Z,79.0
2018-01-30T09:46:41.916Z,78.6
2018-01-30T09:47:42.586Z,77.3
2018-01-30T09:48:43.289Z,77.1
2018-01-30T09:49:43.958Z,76.6
2018-01-30T09:50:44.624Z,76.2
2018-01-30T09:51:45.292Z,76.1
2018-01-30T09:52:45.959Z,76.5
2018-01-30T09:53:46.627Z,76.3
2018-01-30T09:54:47.297Z,76.3
2018-01-30T09:55:47.965Z,76.0
2018-01-30T09:56:48.678Z,75.9
2018-01-30T09:57:49.337Z,76.0
2018-01-30T09:58:50.005Z,75.9
2018-01-30T09:59:50.672Z,76.4
2018-01-30T10:00:51.341Z,76.8
2018-01-30T10:01:52.008Z,76.0
2018-01-30T10:02:52.726Z,76.0
2018-01-30T10:03:53.394Z,76.2
2018-01-30T10:04:54.063Z,75.9
2018-01-30T10:05:54.729Z,75.9
2018-01-30T10:06:55.399Z,75.3
2018-01-30T10:07:56.119Z,74.4
2018-01-30T10:08:56.787Z,74.0
2018-01-30T10:09:57.457Z,74.1
2018-01-30T10:10:58.150Z,73.8
2018-01-30T10:11:58.833Z,73.4
2018-01-30T10:12:59.500Z,73.4
2018-01-30T10:14:00.208Z,73.4
2018-01-30T10:15:00.836Z,73.4
2018-01-30T10:16:01.542Z,73.0
2018-01-30T10:17:02.209Z,72.4
2018-01-30T10:18:02.937Z,72.8
2018-01-30T10:19:03.595Z,72.6
2018-01-30T10:20:04.267Z,72.9
2018-01-30T10:21:04.953Z,72.1
2018-01-30T10:22:05.639Z,72.0
2018-01-30T10:23:06.358Z,72.4
2018-01-30T10:24:07.022Z,72.5
2018-01-30T10:25:07.691Z,72.3
2018-01-30T10:26:08.359Z,72.6
2018-01-30T10:27:09.040Z,72.3
2018-01-30T10:28:09.733Z,72.1
2018-01-30T10:29:10.402Z,72.2
2018-01-30T10:30:11.070Z,72.1
2018-01-30T10:31:11.737Z,71.7
2018-01-30T10:32:12.406Z,71.8
2018-01-30T10:33:13.075Z,71.6
2018-01-30T10:34:13.780Z,71.9
2018-01-30T10:35:14.447Z,71.8
2018-01-30T10:36:15.117Z,71.5
2018-01-30T10:37:15.783Z,70.8
2018-01-30T10:38:16.453Z,70.2
2018-01-30T10:39:17.121Z,69.4
2018-01-30T10:40:17.790Z,69.3
2018-01-30T10:41:18.459Z,69.0
2018-01-30T10:42:19.127Z,68.7
2018-01-30T10:43:19.799Z,68.9
2018-01-30T10:44:20.472Z,69.0
2018-01-30T10:45:21.175Z,69.0
2018-01-30T10:46:21.844Z,68.6
2018-01-30T10:47:22.511Z,68.6
2018-01-30T10:48:23.179Z,68.2
2018-01-30T10:49:23.847Z,68.5
2018-01-30T10:50:24.515Z,68.7
2018-01-30T10:51:25.184Z,69.0
2018-01-30T10:52:25.852Z,68.7
2018-01-30T10:53:26.521Z,69.2
2018-01-30T10:54:27.188Z,69.0
2018-01-30T10:55:27.857Z,69.5
2018-01-30T10:56:28.524Z,69.9
2018-01-30T10:57:29.194Z,69.6
2018-01-30T10:58:29.860Z,69.2
2018-01-30T10:59:30.531Z,69.4
2018-01-30T11:00:31.197Z,69.7
2018-01-30T11:01:31.865Z,70.1
2018-01-30T11:02:32.553Z,69.7
2018-01-30T11:03:33.256Z,69.8
2018-01-30T11:04:33.924Z,69.9
2018-01-30T11:05:34.656Z,70.0
2018-01-30T11:06:35.297Z,69.7
2018-01-30T11:07:35.966Z,69.4
2018-01-30T11:08:36.635Z,69.4
2018-01-30T11:09:37.309Z,69.2
2018-01-30T11:10:37.972Z,69.0
2018-01-30T11:11:38.642Z,69.0
2018-01-30T11:12:39.315Z,68.6
2018-01-30T11:13:39.986Z,68.5
2018-01-30T11:14:40.654Z,68.8
2018-01-30T11:15:41.322Z,68.1
2018-01-30T11:16:41.994Z,67.7
2018-01-30T11:17:42.662Z,67.6
2018-01-30T11:18:43.333Z,67.7
2018-01-30T11:19:44.003Z,67.9
2018-01-30T11:20:44.670Z,67.8
2018-01-30T11:21:45.341Z,67.9
2018-01-30T11:22:46.010Z,67.5
2018-01-30T11:23:46.679Z,67.8
2018-01-30T11:24:47.348Z,68.1
2018-01-30T11:25:48.017Z,68.1
2018-01-30T11:26:48.689Z,67.6
2018-01-30T11:27:49.360Z,68.1
2018-01-30T11:28:50.028Z,67.6
2018-01-30T11:29:50.698Z,67.8
2018-01-30T11:30:51.370Z,68.1
2018-01-30T11:31:52.038Z,68.0
2018-01-30T11:32:52.707Z,67.8
2018-01-30T11:33:53.375Z,67.6
2018-01-30T11:34:54.044Z,67.6
2018-01-30T11:35:54.715Z,67.5
2018-01-30T11:36:55.424Z,67.6
2018-01-30T11:37:56.094Z,67.7
2018-01-30T11:38:56.765Z,67.6
2018-01-30T11:39:57.434Z,67.4
2018-01-30T11:40:58.105Z,66.7
2018-01-30T11:41:58.773Z,66.9
2018-01-30T11:42:59.443Z,67.6
2018-01-30T11:44:00.111Z,68.3
2018-01-30T11:45:00.780Z,68.1
2018-01-30T11:46:01.450Z,67.9
2018-01-30T11:47:02.120Z,67.1
2018-01-30T11:48:02.791Z,66.9
2018-01-30T11:49:03.490Z,66.8
2018-01-30T11:50:04.169Z,67.1
2018-01-30T11:51:04.842Z,67.2
2018-01-30T11:52:05.512Z,67.6
2018-01-30T11:53:06.181Z,67.3
2018-01-30T11:54:06.851Z,67.4
2018-01-30T11:55:07.520Z,67.2
2018-01-30T11:56:08.192Z,67.4
2018-01-30T11:57:08.860Z,67.8
2018-01-30T11:58:09.531Z,67.8
2018-01-30T11:59:10.200Z,67.6
2018-01-30T12:00:10.868Z,67.2
2018-01-30T12:01:11.580Z,67.3
2018-01-30T12:02:12.293Z,67.3
2018-01-30T12:03:12.920Z,67.3
2018-01-30T12:04:13.589Z,67.6
2018-01-30T12:05:14.257Z,67.4
2018-01-30T12:06:14.930Z,66.9
2018-01-30T12:07:15.599Z,67.4
2018-01-30T12:08:16.273Z,67.7
2018-01-30T12:09:16.937Z,67.8
2018-01-30T12:10:17.606Z,67.5
2018-01-30T12:11:18.277Z,67.3
2018-01-30T12:12:18.944Z,67.3
2018-01-30T12:13:19.615Z,67.7
2018-01-30T12:14:20.286Z,67.6
2018-01-30T12:15:20.951Z,68.5
2018-01-30T12:16:21.661Z,68.5
2018-01-30T12:17:22.331Z,68.0
2018-01-30T12:18:23.000Z,68.3
2018-01-30T12:19:23.670Z,67.4
2018-01-30T12:20:24.369Z,67.8
2018-01-30T12:21:25.045Z,68.2
2018-01-30T12:22:25.724Z,67.9
2018-01-30T12:23:26.430Z,67.6
2018-01-30T12:24:27.099Z,67.5
2018-01-30T12:25:27.769Z,67.5
2018-01-30T12:26:28.453Z,67.9
2018-01-30T12:27:29.111Z,68.0
2018-01-30T12:28:29.780Z,67.6
2018-01-30T12:29:30.451Z,67.3
2018-01-30T12:30:31.121Z,66.8
2018-01-30T12:31:31.830Z,66.7
2018-01-30T12:32:32.502Z,66.3
2018-01-30T12:33:33.212Z,66.0
2018-01-30T12:34:33.882Z,65.7
2018-01-30T12:35:34.592Z,64.6
2018-01-30T12:36:35.261Z,64.8
2018-01-30T12:37:35.968Z,64.5
2018-01-30T12:38:36.642Z,64.2
2018-01-30T12:39:37.313Z,64.9
2018-01-30T12:40:37.983Z,65.0
2018-01-30T12:41:38.653Z,65.4
2018-01-30T12:42:39.363Z,65.7
2018-01-30T12:43:40.035Z,65.7
2018-01-30T12:44:40.704Z,65.1
2018-01-30T12:45:41.375Z,64.6
2018-01-30T12:46:42.048Z,64.9
2018-01-30T12:47:42.718Z,64.5
2018-01-30T12:48:43.415Z,64.7
2018-01-30T12:49:44.098Z,64.3
2018-01-30T12:50:44.772Z,64.3
2018-01-30T12:51:45.439Z,64.4
2018-01-30T12:52:46.112Z,64.3
2018-01-30T12:53:46.782Z,64.3
2018-01-30T12:54:47.453Z,64.2
2018-01-30T12:55:48.123Z,64.6
2018-01-30T12:56:48.793Z,64.4
2018-01-30T12:57:49.466Z,64.4
2018-01-30T12:58:50.140Z,65.1
2018-01-30T12:59:50.810Z,65.8
2018-01-30T13:00:51.480Z,65.9
2018-01-30T13:01:52.152Z,65.7
2018-01-30T13:02:52.822Z,65.9
2018-01-30T13:03:53.495Z,66.7
2018-01-30T13:04:54.164Z,66.9
2018-01-30T13:05:54.833Z,67.0
2018-01-30T13:06:55.507Z,66.7
2018-01-30T13:07:56.175Z,67.1
2018-01-30T13:08:56.847Z,67.1
2018-01-30T13:09:57.516Z,66.9
2018-01-30T13:10:58.185Z,66.9
2018-01-30T13:11:58.855Z,67.2
2018-01-30T13:12:59.525Z,67.8
2018-01-30T13:14:00.195Z,67.9
2018-01-30T13:15:00.906Z,67.4
2018-01-30T13:16:01.576Z,67.1
2018-01-30T13:17:02.246Z,67.1
2018-01-30T13:18:02.916Z,67.1
2018-01-30T13:19:03.588Z,67.5
2018-01-30T13:20:04.260Z,67.8
2018-01-30T13:21:04.927Z,67.5
2018-01-30T13:22:05.599Z,67.8
2018-01-30T13:23:06.268Z,67.7
2018-01-30T13:24:06.939Z,67.3
2018-01-30T13:25:07.607Z,67.5
2018-01-30T13:26:08.276Z,67.2
2018-01-30T13:27:08.948Z,66.7
2018-01-30T13:28:09.618Z,66.3
2018-01-30T13:29:10.291Z,65.2